Time;durP1;ratioP1;P1;durP2;ratioP2;P2;SDS_P1;SDS_P2;PMS_P1;PMS_P2;Temp;Humidity;BMP_temperature;BMP_pressure;BME280_temperature;BME280_humidity;BME280_pressure;Samples;Min_cycle;Max_cycle;Signal;HPM_P1;HPM_P2
2023/06/13 00:01:03;;;;;;;;;10.00;8.00;;;;;;;;5063850;28;8810;-83
2023/06/13 00:03:30;;;;;;;;;11.25;11.25;;;;;;;;5064284;28;8855;-82
2023/06/13 00:06:01;;;;;;;;;13.50;13.25;;;;;;;;5060878;28;8868;-83
2023/06/13 00:08:32;;;;;;;;;13.25;13.25;;;;;;;;5066559;28;8831;-83
2023/06/13 00:11:02;;;;;;;;;13.00;13.00;;;;;;;;5068411;28;8823;-83
2023/06/13 00:13:30;;;;;;;;;13.25;13.00;;;;;;;;5054645;28;8870;-82
2023/06/13 00:15:58;;;;;;;;;13.75;11.75;;;;;;;;5057205;28;8913;-83
2023/06/13 00:18:29;;;;;;;;;12.75;12.50;;;;;;;;5052376;28;8857;-83
2023/06/13 00:20:58;;;;;;;;;14.25;13.00;;;;;;;;5058111;28;8849;-82
2023/06/13 00:23:26;;;;;;;;;13.75;13.75;;;;;;;;5067080;28;8867;-83
2023/06/13 00:25:54;;;;;;;;;12.50;12.50;;;;;;;;5067603;28;8843;-83
2023/06/13 00:28:21;;;;;;;;;13.75;13.75;;;;;;;;5061917;28;8843;-83
2023/06/13 00:30:49;;;;;;;;;17.00;17.00;;;;;;;;5071145;28;8793;-83
2023/06/13 00:33:17;;;;;;;;;12.50;12.50;;;;;;;;5068012;28;8962;-83
2023/06/13 00:35:46;;;;;;;;;14.50;12.75;;;;;;;;5070191;28;8824;-83
2023/06/13 00:38:23;;;;;;;;;12.25;12.25;;;;;;;;5050700;28;8884;-83
2023/06/13 00:40:52;;;;;;;;;13.75;12.00;;;;;;;;5060970;28;8866;-83
2023/06/13 00:43:19;;;;;;;;;17.50;15.50;;;;;;;;5069771;28;8823;-82
2023/06/13 00:45:46;;;;;;;;;13.25;12.50;;;;;;;;5061918;28;8830;-82
2023/06/13 00:48:14;;;;;;;;;13.75;13.75;;;;;;;;5068546;28;8861;-82
2023/06/13 00:50:44;;;;;;;;;15.00;15.00;;;;;;;;5059077;28;8825;-82
2023/06/13 00:53:17;;;;;;;;;14.75;12.00;;;;;;;;5057928;28;8998;-83
2023/06/13 00:55:46;;;;;;;;;9.00;8.75;;;;;;;;5072163;28;8847;-82
2023/06/13 00:58:14;;;;;;;;;13.00;10.75;;;;;;;;5071831;28;8924;-83
2023/06/13 01:00:43;;;;;;;;;11.75;11.75;;;;;;;;5061960;28;8764;-83
2023/06/13 01:03:15;;;;;;;;;11.00;11.00;;;;;;;;5065663;28;8862;-83
2023/06/13 01:05:43;;;;;;;;;11.75;10.75;;;;;;;;5060940;28;8854;-83
2023/06/13 01:08:14;;;;;;;;;14.50;13.50;;;;;;;;5070910;28;8859;-83
2023/06/13 01:10:47;;;;;;;;;14.50;14.50;;;;;;;;5071406;28;8863;-83
2023/06/13 01:13:17;;;;;;;;;13.50;12.25;;;;;;;;5067412;28;8955;-83
2023/06/13 01:15:51;;;;;;;;;14.25;14.25;;;;;;;;5059015;28;9602;-83
2023/06/13 01:18:22;;;;;;;;;15.50;14.25;;;;;;;;5070999;28;8854;-83
2023/06/13 01:20:56;;;;;;;;;16.50;14.00;;;;;;;;5065892;28;8932;-84
2023/06/13 01:23:37;;;;;;;;;14.50;13.25;;;;;;;;5061184;28;8859;-84
2023/06/13 01:26:08;;;;;;;;;16.75;16.00;;;;;;;;5066531;28;8862;-82
2023/06/13 01:28:37;;;;;;;;;12.25;11.75;;;;;;;;5070856;28;8890;-82
2023/06/13 01:31:07;;;;;;;;;13.25;13.25;;;;;;;;5070102;28;10304;-83
2023/06/13 01:33:36;;;;;;;;;12.00;12.00;;;;;;;;5070820;28;8858;-83
2023/06/13 01:36:03;;;;;;;;;12.00;12.00;;;;;;;;5070056;28;8863;-83
2023/06/13 01:38:31;;;;;;;;;17.50;17.50;;;;;;;;5069869;28;8863;-83
2023/06/13 01:40:59;;;;;;;;;16.25;16.25;;;;;;;;5067542;28;8852;-82
2023/06/13 01:43:26;;;;;;;;;14.00;14.00;;;;;;;;5071555;28;8973;-83
2023/06/13 01:46:00;;;;;;;;;19.50;19.50;;;;;;;;5070365;28;8951;-83
2023/06/13 01:48:35;;;;;;;;;14.75;14.75;;;;;;;;5067375;28;8977;-83
2023/06/13 01:51:08;;;;;;;;;19.00;17.25;;;;;;;;5069908;28;8863;-82
2023/06/13 01:53:40;;;;;;;;;13.25;13.25;;;;;;;;5070194;28;8839;-83
2023/06/13 01:56:11;;;;;;;;;15.25;15.25;;;;;;;;5060261;28;9646;-83
2023/06/13 01:58:52;;;;;;;;;12.00;10.00;;;;;;;;5068894;28;8874;-83
2023/06/13 02:01:22;;;;;;;;;13.50;13.50;;;;;;;;5066329;28;8798;-82
2023/06/13 02:03:49;;;;;;;;;18.50;18.50;;;;;;;;5068144;28;8842;-82
2023/06/13 02:06:17;;;;;;;;;17.50;16.25;;;;;;;;5068909;28;8882;-83
2023/06/13 02:08:45;;;;;;;;;20.00;18.25;;;;;;;;5065429;28;8849;-84
2023/06/13 02:11:17;;;;;;;;;19.50;18.00;;;;;;;;5067763;28;8986;-84
2023/06/13 02:13:48;;;;;;;;;12.50;12.50;;;;;;;;5066116;28;8859;-85
2023/06/13 02:16:17;;;;;;;;;17.00;17.00;;;;;;;;5063017;28;8853;-84
2023/06/13 02:18:46;;;;;;;;;17.50;17.50;;;;;;;;5064096;28;8849;-84
2023/06/13 02:21:14;;;;;;;;;17.75;16.50;;;;;;;;5057676;28;8865;-83
2023/06/13 02:23:41;;;;;;;;;16.75;16.00;;;;;;;;5069679;28;8867;-83
2023/06/13 02:26:08;;;;;;;;;18.50;18.50;;;;;;;;5068726;28;8869;-83
2023/06/13 02:28:36;;;;;;;;;19.25;18.75;;;;;;;;5070399;28;9001;-83
2023/06/13 02:31:03;;;;;;;;;17.75;16.00;;;;;;;;5059713;28;8788;-83
2023/06/13 02:33:31;;;;;;;;;17.50;17.50;;;;;;;;5069489;28;8863;-83
2023/06/13 02:36:03;;;;;;;;;18.75;16.50;;;;;;;;5058219;28;8946;-83
2023/06/13 02:38:30;;;;;;;;;17.25;16.00;;;;;;;;5063626;28;8862;-83
2023/06/13 02:40:59;;;;;;;;;16.00;16.00;;;;;;;;5071623;28;8851;-82
2023/06/13 02:43:26;;;;;;;;;17.50;17.50;;;;;;;;5057315;28;8877;-83
2023/06/13 02:45:54;;;;;;;;;22.50;19.50;;;;;;;;5064487;28;8854;-83
2023/06/13 02:48:25;;;;;;;;;21.50;18.50;;;;;;;;5068897;28;8981;-82
2023/06/13 02:50:57;;;;;;;;;19.00;17.00;;;;;;;;5060178;28;9017;-83
2023/06/13 02:53:26;;;;;;;;;22.00;19.00;;;;;;;;5064760;28;8878;-82
2023/06/13 02:55:56;;;;;;;;;23.25;21.75;;;;;;;;5051233;28;8981;-83
2023/06/13 02:58:23;;;;;;;;;17.00;16.00;;;;;;;;5064179;28;8838;-83
2023/06/13 03:00:56;;;;;;;;;17.75;17.00;;;;;;;;5055690;28;8807;-82
2023/06/13 03:03:24;;;;;;;;;10.50;10.50;;;;;;;;5068521;28;8985;-81
2023/06/13 03:05:56;;;;;;;;;18.25;18.25;;;;;;;;5056053;28;8849;-82
2023/06/13 03:08:25;;;;;;;;;18.00;18.00;;;;;;;;5055131;28;8881;-82
2023/06/13 03:10:52;;;;;;;;;20.00;20.00;;;;;;;;5066293;28;8859;-83
2023/06/13 03:13:22;;;;;;;;;22.75;19.75;;;;;;;;5069019;28;8839;-83
2023/06/13 03:15:51;;;;;;;;;22.25;19.00;;;;;;;;5060382;28;8850;-82
2023/06/13 03:18:23;;;;;;;;;17.50;17.50;;;;;;;;5068839;28;8968;-83
2023/06/13 03:20:56;;;;;;;;;18.25;18.25;;;;;;;;5057815;28;8846;-82
2023/06/13 03:23:28;;;;;;;;;14.75;10.50;;;;;;;;5056920;28;8866;-84
2023/06/13 03:25:58;;;;;;;;;19.25;17.50;;;;;;;;5059909;28;8896;-83
2023/06/13 03:28:26;;;;;;;;;17.50;17.00;;;;;;;;5062455;28;9585;-81
2023/06/13 03:30:54;;;;;;;;;18.50;17.00;;;;;;;;5062778;28;8930;-80
2023/06/13 03:33:23;;;;;;;;;20.75;17.75;;;;;;;;5067284;28;8962;-81
2023/06/13 03:35:50;;;;;;;;;23.50;21.75;;;;;;;;5058591;28;8908;-82
2023/06/13 03:38:18;;;;;;;;;20.00;18.25;;;;;;;;5071230;28;8863;-80
2023/06/13 03:40:46;;;;;;;;;20.50;20.00;;;;;;;;5063096;28;8918;-80
2023/06/13 03:43:14;;;;;;;;;19.50;19.50;;;;;;;;5059232;28;8865;-80
2023/06/13 03:45:41;;;;;;;;;16.00;16.00;;;;;;;;5065066;28;8974;-77
2023/06/13 03:48:08;;;;;;;;;21.25;19.25;;;;;;;;5068119;28;8890;-80
2023/06/13 03:50:35;;;;;;;;;17.75;17.00;;;;;;;;5059273;28;8881;-79
2023/06/13 03:53:02;;;;;;;;;21.25;20.00;;;;;;;;5067602;28;8851;-80
2023/06/13 03:55:32;;;;;;;;;18.75;18.75;;;;;;;;5064041;28;8927;-80
2023/06/13 03:58:00;;;;;;;;;19.75;19.75;;;;;;;;5065398;28;8825;-79
2023/06/13 04:00:27;;;;;;;;;21.00;19.50;;;;;;;;5067982;28;8877;-81
2023/06/13 04:02:55;;;;;;;;;18.25;18.25;;;;;;;;5061522;28;8923;-79
2023/06/13 04:05:23;;;;;;;;;20.75;19.25;;;;;;;;5064416;28;8858;-79
2023/06/13 04:07:53;;;;;;;;;17.50;17.25;;;;;;;;5059930;28;8843;-81
2023/06/13 04:10:23;;;;;;;;;19.00;19.00;;;;;;;;5073787;28;8855;-78
2023/06/13 04:12:50;;;;;;;;;23.25;19.75;;;;;;;;5064370;28;8986;-79
2023/06/13 04:15:20;;;;;;;;;17.75;17.00;;;;;;;;5075493;28;9602;-78
2023/06/13 04:17:47;;;;;;;;;21.75;20.25;;;;;;;;5070521;28;8890;-75
2023/06/13 04:20:15;;;;;;;;;28.00;23.25;;;;;;;;5074674;28;8905;-81
2023/06/13 04:22:43;;;;;;;;;20.75;20.75;;;;;;;;5072180;28;8859;-77
2023/06/13 04:25:11;;;;;;;;;20.50;20.50;;;;;;;;5073119;28;8831;-79
2023/06/13 04:27:38;;;;;;;;;22.00;22.00;;;;;;;;5059233;28;8874;-79
2023/06/13 04:30:07;;;;;;;;;26.25;23.25;;;;;;;;5068862;28;8859;-80
2023/06/13 04:32:37;;;;;;;;;20.50;20.50;;;;;;;;5069965;28;8889;-79
2023/06/13 04:35:05;;;;;;;;;17.25;17.00;;;;;;;;5067386;28;8846;-80
2023/06/13 04:37:32;;;;;;;;;20.75;18.75;;;;;;;;5064701;28;8843;-78
2023/06/13 04:40:00;;;;;;;;;20.00;20.00;;;;;;;;5069936;28;8962;-78
2023/06/13 04:42:28;;;;;;;;;30.75;27.00;;;;;;;;5066139;28;8865;-80
2023/06/13 04:44:58;;;;;;;;;26.00;22.75;;;;;;;;5051849;28;8876;-81
2023/06/13 04:47:26;;;;;;;;;22.50;22.50;;;;;;;;5064656;28;8980;-80
2023/06/13 04:49:58;;;;;;;;;21.00;20.75;;;;;;;;5063420;28;8859;-81
2023/06/13 04:52:26;;;;;;;;;22.75;21.00;;;;;;;;5051758;28;8845;-80
2023/06/13 04:54:54;;;;;;;;;23.25;21.25;;;;;;;;5052757;28;8846;-81
2023/06/13 04:57:23;;;;;;;;;17.00;17.00;;;;;;;;5067646;28;8835;-87
2023/06/13 04:59:51;;;;;;;;;20.75;20.75;;;;;;;;5065457;28;8863;-88
2023/06/13 05:02:20;;;;;;;;;24.00;22.50;;;;;;;;5065347;28;8913;-83
2023/06/13 05:04:52;;;;;;;;;22.00;20.75;;;;;;;;5066340;28;8854;-89
2023/06/13 05:07:30;;;;;;;;;23.50;22.25;;;;;;;;5070820;28;8876;-83
2023/06/13 05:10:02;;;;;;;;;22.00;21.50;;;;;;;;5059178;28;8847;-82
2023/06/13 05:12:31;;;;;;;;;23.25;22.00;;;;;;;;5070215;28;8870;-80
2023/06/13 05:15:01;;;;;;;;;23.75;23.25;;;;;;;;5068970;28;8871;-81
2023/06/13 05:17:29;;;;;;;;;20.50;18.75;;;;;;;;5062763;28;8886;-80
2023/06/13 05:19:56;;;;;;;;;24.00;22.25;;;;;;;;5070576;28;8880;-80
2023/06/13 05:22:25;;;;;;;;;29.00;26.00;;;;;;;;5070181;28;8982;-80
2023/06/13 05:24:53;;;;;;;;;23.00;22.75;;;;;;;;5061242;28;8850;-81
2023/06/13 05:27:21;;;;;;;;;23.50;23.50;;;;;;;;5054155;28;8875;-82
2023/06/13 05:29:48;;;;;;;;;28.00;25.25;;;;;;;;5061360;28;8853;-79
2023/06/13 05:32:15;;;;;;;;;27.50;27.00;;;;;;;;5066179;28;8813;-80
2023/06/13 05:34:43;;;;;;;;;28.00;28.00;;;;;;;;5070073;28;8882;-83
2023/06/13 05:37:11;;;;;;;;;29.00;27.50;;;;;;;;5070603;28;8858;-80
2023/06/13 05:39:40;;;;;;;;;26.00;26.00;;;;;;;;5069933;28;8953;-82
2023/06/13 05:42:08;;;;;;;;;26.25;25.75;;;;;;;;5069539;28;8851;-81
2023/06/13 05:44:36;;;;;;;;;27.50;27.50;;;;;;;;5060544;28;8885;-80
2023/06/13 05:47:04;;;;;;;;;29.25;25.50;;;;;;;;5069817;28;8850;-80
2023/06/13 05:49:32;;;;;;;;;33.00;25.00;;;;;;;;5071316;28;8875;-81
2023/06/13 05:51:59;;;;;;;;;30.00;29.00;;;;;;;;5070965;28;8876;-80
2023/06/13 05:54:27;;;;;;;;;28.00;28.00;;;;;;;;5069566;28;8855;-81
2023/06/13 05:56:57;;;;;;;;;32.75;31.50;;;;;;;;5072292;28;8863;-81
2023/06/13 05:59:27;;;;;;;;;31.50;26.50;;;;;;;;5070879;28;8839;-81
2023/06/13 06:01:54;;;;;;;;;27.75;26.25;;;;;;;;5061626;28;8805;-81
2023/06/13 06:04:30;;;;;;;;;31.50;28.75;;;;;;;;5069416;28;8863;-81
2023/06/13 06:07:00;;;;;;;;;25.75;25.50;;;;;;;;5062276;28;8839;-82
2023/06/13 06:09:27;;;;;;;;;31.25;30.25;;;;;;;;5069144;28;8889;-82
2023/06/13 06:11:57;;;;;;;;;25.25;25.25;;;;;;;;5068690;28;8929;-86
2023/06/13 06:14:24;;;;;;;;;28.25;26.75;;;;;;;;5060416;28;8912;-84
2023/06/13 06:16:55;;;;;;;;;32.25;31.25;;;;;;;;5070213;28;8863;-82
2023/06/13 06:19:22;;;;;;;;;33.50;30.75;;;;;;;;5068022;28;8858;-86
2023/06/13 06:21:49;;;;;;;;;31.50;29.50;;;;;;;;5070139;28;8863;-85
2023/06/13 06:24:18;;;;;;;;;39.00;29.25;;;;;;;;5069189;28;8878;-83
2023/06/13 06:26:45;;;;;;;;;25.50;25.50;;;;;;;;5066983;28;8969;-84
2023/06/13 06:29:15;;;;;;;;;25.25;25.25;;;;;;;;5070095;28;9606;-84
2023/06/13 06:31:42;;;;;;;;;30.25;28.00;;;;;;;;5066645;28;8853;-84
2023/06/13 06:34:10;;;;;;;;;26.25;26.25;;;;;;;;5067144;28;8963;-83
2023/06/13 06:36:37;;;;;;;;;29.75;29.50;;;;;;;;5067185;28;8850;-84
2023/06/13 06:39:04;;;;;;;;;26.25;26.25;;;;;;;;5066558;28;8973;-84
2023/06/13 06:41:31;;;;;;;;;26.50;24.00;;;;;;;;5065844;28;9376;-85
2023/06/13 06:43:59;;;;;;;;;25.50;25.50;;;;;;;;5068896;28;8862;-85
2023/06/13 06:46:30;;;;;;;;;25.00;22.25;;;;;;;;5069433;28;8994;-85
2023/06/13 06:49:01;;;;;;;;;27.50;26.75;;;;;;;;5068012;28;9716;-85
2023/06/13 06:51:30;;;;;;;;;25.50;25.25;;;;;;;;5069707;28;8863;-85
2023/06/13 06:54:00;;;;;;;;;25.00;24.25;;;;;;;;5070121;28;8951;-85
2023/06/13 06:56:29;;;;;;;;;24.25;22.75;;;;;;;;5070722;28;8885;-84
2023/06/13 06:58:59;;;;;;;;;19.25;19.25;;;;;;;;5065816;28;8853;-84
2023/06/13 07:01:28;;;;;;;;;27.00;24.75;;;;;;;;5068412;28;8795;-85
2023/06/13 07:03:55;;;;;;;;;21.50;20.50;;;;;;;;5068103;28;8859;-84
2023/06/13 07:06:25;;;;;;;;;24.50;24.50;;;;;;;;5068682;28;8873;-84
2023/06/13 07:08:52;;;;;;;;;22.00;22.00;;;;;;;;5065100;28;8880;-84
2023/06/13 07:11:22;;;;;;;;;19.75;19.25;;;;;;;;5068994;28;8831;-84
2023/06/13 07:13:52;;;;;;;;;24.50;22.75;;;;;;;;5062182;28;8867;-85
2023/06/13 07:16:22;;;;;;;;;23.00;23.00;;;;;;;;5069280;28;8949;-85
2023/06/13 07:18:52;;;;;;;;;18.00;18.00;;;;;;;;5069614;28;8871;-85
2023/06/13 07:21:19;;;;;;;;;20.00;20.00;;;;;;;;5066383;28;8855;-84
2023/06/13 07:23:46;;;;;;;;;23.50;19.00;;;;;;;;5071355;28;8847;-82
2023/06/13 07:26:14;;;;;;;;;20.25;19.75;;;;;;;;5061044;28;8861;-81
2023/06/13 07:28:42;;;;;;;;;20.40;20.00;;;;;;;;5072175;28;8870;-80
2023/06/13 07:31:09;;;;;;;;;18.00;16.20;;;;;;;;5058717;28;8849;-80
2023/06/13 07:33:36;;;;;;;;;16.80;16.80;;;;;;;;5051206;28;8870;-80
2023/06/13 07:36:06;;;;;;;;;21.20;21.20;;;;;;;;5046967;28;8947;-79
2023/06/13 07:38:33;;;;;;;;;20.20;20.00;;;;;;;;5040960;28;8879;-80
2023/06/13 07:41:00;;;;;;;;;17.20;17.20;;;;;;;;5047020;28;8906;-82
2023/06/13 07:43:29;;;;;;;;;17.20;17.00;;;;;;;;5045431;28;8906;-81
2023/06/13 07:45:57;;;;;;;;;19.60;19.60;;;;;;;;5044912;28;8867;-79
2023/06/13 07:48:25;;;;;;;;;18.20;16.00;;;;;;;;5047960;28;8847;-84
2023/06/13 07:50:52;;;;;;;;;20.80;18.80;;;;;;;;5047741;28;8847;-83
2023/06/13 07:53:24;;;;;;;;;16.60;16.20;;;;;;;;5048006;28;8942;-82
2023/06/13 07:55:54;;;;;;;;;17.20;15.40;;;;;;;;5047519;28;8844;-79
2023/06/13 07:58:24;;;;;;;;;19.60;19.60;;;;;;;;5048011;28;8859;-83
2023/06/13 08:00:52;;;;;;;;;17.80;17.80;;;;;;;;5046961;28;8798;-82
2023/06/13 08:03:19;;;;;;;;;17.40;16.20;;;;;;;;5047823;28;8827;-83
2023/06/13 08:05:46;;;;;;;;;17.40;17.40;;;;;;;;5048486;28;8946;-88
2023/06/13 08:08:13;;;;;;;;;18.80;17.00;;;;;;;;5049387;28;8883;-90
2023/06/13 08:10:42;;;;;;;;;17.40;17.40;;;;;;;;5048501;28;8882;-83
2023/06/13 08:13:09;;;;;;;;;17.00;15.60;;;;;;;;5041317;28;8986;-82
2023/06/13 08:15:36;;;;;;;;;17.80;16.80;;;;;;;;5051020;28;8873;-82
2023/06/13 08:18:04;;;;;;;;;16.20;16.20;;;;;;;;5048961;28;8997;-81
2023/06/13 08:20:31;;;;;;;;;21.20;17.80;;;;;;;;5046627;28;8855;-81
2023/06/13 08:23:00;;;;;;;;;17.80;17.80;;;;;;;;5047744;28;8883;-81
2023/06/13 08:25:30;;;;;;;;;16.60;16.20;;;;;;;;5036160;28;8847;-83
2023/06/13 08:28:00;;;;;;;;;15.20;15.20;;;;;;;;5047168;28;8871;-81
2023/06/13 08:30:27;;;;;;;;;18.80;16.40;;;;;;;;5037068;28;8763;-81
2023/06/13 08:32:54;;;;;;;;;15.60;15.20;;;;;;;;5046953;28;8886;-81
2023/06/13 08:35:22;;;;;;;;;18.60;17.60;;;;;;;;5047172;28;8871;-81
2023/06/13 08:37:51;;;;;;;;;17.00;17.00;;;;;;;;5044385;28;9494;-81
2023/06/13 08:40:19;;;;;;;;;17.00;15.00;;;;;;;;5047156;28;8871;-81
2023/06/13 08:42:47;;;;;;;;;17.80;17.80;;;;;;;;5046848;28;8863;-82
2023/06/13 08:45:16;;;;;;;;;14.20;14.20;;;;;;;;5047388;28;8881;-81
2023/06/13 08:47:46;;;;;;;;;18.20;16.80;;;;;;;;5047519;28;8876;-82
2023/06/13 08:50:18;;;;;;;;;15.20;14.80;;;;;;;;5049356;28;8847;-82
2023/06/13 08:52:48;;;;;;;;;16.60;15.20;;;;;;;;5049101;28;8875;-81
2023/06/13 08:55:16;;;;;;;;;17.00;15.20;;;;;;;;5050891;28;8882;-83
2023/06/13 08:57:47;;;;;;;;;20.40;18.80;;;;;;;;5049261;28;8859;-82
2023/06/13 09:00:17;;;;;;;;;15.00;14.00;;;;;;;;5050914;28;8851;-81
2023/06/13 09:02:47;;;;;;;;;14.20;14.20;;;;;;;;5052658;28;8851;-82
2023/06/13 09:05:15;;;;;;;;;15.00;15.00;;;;;;;;5052851;28;8869;-80
2023/06/13 09:07:42;;;;;;;;;12.40;12.40;;;;;;;;5053049;28;9002;-82
2023/06/13 09:10:11;;;;;;;;;16.00;15.60;;;;;;;;5053899;28;8977;-82
2023/06/13 09:12:40;;;;;;;;;14.00;14.00;;;;;;;;5051607;28;8855;-82
2023/06/13 09:15:08;;;;;;;;;16.20;14.60;;;;;;;;5037539;28;8854;-82
2023/06/13 09:17:37;;;;;;;;;15.60;15.60;;;;;;;;5043265;28;9038;-82
2023/06/13 09:20:05;;;;;;;;;17.00;15.00;;;;;;;;5045981;28;8886;-81
2023/06/13 09:22:34;;;;;;;;;14.00;14.00;;;;;;;;5039873;28;8948;-82
2023/06/13 09:25:04;;;;;;;;;13.20;13.20;;;;;;;;5047937;28;8957;-82
2023/06/13 09:27:31;;;;;;;;;11.00;11.00;;;;;;;;5042755;28;8875;-82
2023/06/13 09:30:00;;;;;;;;;15.00;13.80;;;;;;;;5047436;28;8981;-81
2023/06/13 09:32:28;;;;;;;;;13.40;13.40;;;;;;;;5049996;28;8832;-81
2023/06/13 09:34:57;;;;;;;;;14.60;13.40;;;;;;;;5050494;28;8901;-81
2023/06/13 09:37:26;;;;;;;;;13.40;13.40;;;;;;;;5050601;28;8856;-82
2023/06/13 09:39:54;;;;;;;;;15.40;15.40;;;;;;;;5048618;28;8871;-81
2023/06/13 09:42:22;;;;;;;;;11.60;11.60;;;;;;;;5049835;28;8871;-81
2023/06/13 09:44:50;;;;;;;;;14.40;14.40;;;;;;;;5047601;28;8890;-80
2023/06/13 09:47:27;;;;;;;;;13.80;12.40;;;;;;;;5045565;28;8992;-81
2023/06/13 09:49:57;;;;;;;;;13.60;13.60;;;;;;;;5037587;28;8932;-81
2023/06/13 09:52:25;;;;;;;;;16.20;13.40;;;;;;;;5043615;28;8873;-81
2023/06/13 09:54:53;;;;;;;;;13.00;13.00;;;;;;;;5050164;28;8862;-81
2023/06/13 09:57:23;;;;;;;;;12.20;12.20;;;;;;;;5043969;28;8855;-82
2023/06/13 09:59:51;;;;;;;;;10.80;10.80;;;;;;;;5049492;28;8885;-82
2023/06/13 10:02:20;;;;;;;;;15.00;13.40;;;;;;;;5043730;28;8830;-81
2023/06/13 10:04:50;;;;;;;;;11.20;11.20;;;;;;;;5050508;28;8832;-81
2023/06/13 10:07:18;;;;;;;;;12.20;11.60;;;;;;;;5046635;28;8956;-81
2023/06/13 10:09:47;;;;;;;;;12.00;12.00;;;;;;;;5040934;28;8858;-81
2023/06/13 10:12:20;;;;;;;;;11.80;11.80;;;;;;;;5046033;28;8918;-81
2023/06/13 10:14:55;;;;;;;;;9.20;9.20;;;;;;;;5045557;28;8853;-84
2023/06/13 10:17:22;;;;;;;;;10.60;10.60;;;;;;;;5042730;28;8883;-82
2023/06/13 10:19:55;;;;;;;;;8.80;8.80;;;;;;;;5049497;28;8836;-81
2023/06/13 10:22:25;;;;;;;;;9.20;8.00;;;;;;;;5042935;28;8932;-83
2023/06/13 10:24:56;;;;;;;;;9.60;8.00;;;;;;;;5041353;28;9735;-84
2023/06/13 10:27:28;;;;;;;;;10.00;10.00;;;;;;;;5049796;28;8859;-83
2023/06/13 10:30:18;;;;;;;;;10.00;10.00;;;;;;;;5049164;28;8859;-83
2023/06/13 10:33:08;;;;;;;;;13.20;13.00;;;;;;;;5066739;28;8900;-84
2023/06/13 10:36:11;;;;;;;;;14.00;12.00;;;;;;;;5070207;28;9675;-86
2023/06/13 10:39:12;;;;;;;;;7.40;7.40;;;;;;;;5060821;28;8850;-82
2023/06/13 10:41:50;;;;;;;;;16.00;14.00;;;;;;;;5070587;28;8873;-87
2023/06/13 10:44:22;;;;;;;;;10.20;10.20;;;;;;;;5072218;28;8886;-83
2023/06/13 10:46:52;;;;;;;;;13.80;13.80;;;;;;;;5069963;28;8862;-80
2023/06/13 10:49:21;;;;;;;;;10.20;10.20;;;;;;;;5070602;28;8963;-80
2023/06/13 10:51:48;;;;;;;;;10.80;10.80;;;;;;;;5068688;28;8878;-81
2023/06/13 10:54:17;;;;;;;;;11.20;11.20;;;;;;;;5061246;28;8838;-81
2023/06/13 10:56:45;;;;;;;;;12.20;12.20;;;;;;;;5065565;28;8965;-79
2023/06/13 10:59:15;;;;;;;;;12.00;12.00;;;;;;;;5065207;28;9270;-83
2023/06/13 11:01:42;;;;;;;;;11.00;11.00;;;;;;;;5067823;28;8815;-85
2023/06/13 11:04:14;;;;;;;;;12.40;12.40;;;;;;;;5068702;28;8855;-83
2023/06/13 11:06:42;;;;;;;;;12.40;12.40;;;;;;;;5068456;28;8946;-82
2023/06/13 11:09:22;;;;;;;;;10.40;10.40;;;;;;;;5067857;28;8866;-82
2023/06/13 11:11:54;;;;;;;;;11.60;11.00;;;;;;;;5064990;28;8833;-89
2023/06/13 11:14:23;;;;;;;;;11.00;11.00;;;;;;;;5069170;28;9671;-82
2023/06/13 11:16:53;;;;;;;;;12.20;12.20;;;;;;;;5068487;28;8854;-83
2023/06/13 11:19:26;;;;;;;;;12.00;12.00;;;;;;;;5068510;28;8859;-85
2023/06/13 11:22:11;;;;;;;;;10.20;9.00;;;;;;;;5062532;28;8859;-85
2023/06/13 11:24:40;;;;;;;;;12.20;12.20;;;;;;;;5068320;28;9012;-82
2023/06/13 11:27:10;;;;;;;;;11.40;11.40;;;;;;;;5059136;28;8881;-86
2023/06/13 11:29:38;;;;;;;;;13.20;11.20;;;;;;;;5069324;28;8847;-82
2023/06/13 11:32:08;;;;;;;;;12.00;12.00;;;;;;;;5055078;28;8802;-81
2023/06/13 11:34:42;;;;;;;;;9.60;9.60;;;;;;;;5067331;28;8866;-83
2023/06/13 11:37:20;;;;;;;;;10.80;10.80;;;;;;;;5068557;28;8893;-80
2023/06/13 11:39:55;;;;;;;;;11.60;11.60;;;;;;;;5067593;28;8882;-80
2023/06/13 11:42:22;;;;;;;;;10.40;10.40;;;;;;;;5067295;28;8885;-81
2023/06/13 11:44:50;;;;;;;;;11.80;11.80;;;;;;;;5065544;28;8877;-82
2023/06/13 11:47:17;;;;;;;;;11.80;11.40;;;;;;;;5067403;28;8854;-81
2023/06/13 11:49:56;;;;;;;;;11.20;11.20;;;;;;;;5069283;28;8890;-81
2023/06/13 11:52:25;;;;;;;;;14.00;14.00;;;;;;;;5065316;28;8842;-81
2023/06/13 11:54:54;;;;;;;;;11.20;11.20;;;;;;;;5068639;28;8863;-81
2023/06/13 11:57:24;;;;;;;;;13.20;11.80;;;;;;;;5067577;28;8858;-80
2023/06/13 11:59:58;;;;;;;;;12.60;12.60;;;;;;;;5068228;28;9652;-79
2023/06/13 12:02:29;;;;;;;;;13.20;13.20;;;;;;;;5064289;28;8843;-81
2023/06/13 12:04:56;;;;;;;;;12.60;11.20;;;;;;;;5069020;28;8870;-82
2023/06/13 12:07:23;;;;;;;;;16.40;14.60;;;;;;;;5068713;28;8867;-79
2023/06/13 12:09:54;;;;;;;;;8.40;8.40;;;;;;;;5070162;28;8866;-80
2023/06/13 12:12:23;;;;;;;;;11.00;11.00;;;;;;;;5065291;28;8862;-79
2023/06/13 12:14:54;;;;;;;;;6.80;5.80;;;;;;;;5067153;28;8866;-81
2023/06/13 12:17:26;;;;;;;;;13.40;10.40;;;;;;;;5066368;28;8859;-80
2023/06/13 12:20:07;;;;;;;;;8.80;8.80;;;;;;;;5068294;28;8846;-80
2023/06/13 12:22:34;;;;;;;;;8.40;7.80;;;;;;;;5064217;28;8893;-79
2023/06/13 12:25:02;;;;;;;;;10.60;10.60;;;;;;;;5063125;28;8974;-80
2023/06/13 12:27:31;;;;;;;;;12.40;11.40;;;;;;;;5071301;28;8882;-81
2023/06/13 12:30:10;;;;;;;;;11.40;11.40;;;;;;;;5064309;28;8826;-81
2023/06/13 12:32:38;;;;;;;;;11.20;11.20;;;;;;;;5070631;28;8795;-81
2023/06/13 12:35:05;;;;;;;;;11.20;10.00;;;;;;;;5070958;28;8916;-80
2023/06/13 12:37:37;;;;;;;;;10.00;9.20;;;;;;;;5070266;28;8855;-81
2023/06/13 12:40:10;;;;;;;;;11.00;11.00;;;;;;;;5070259;28;8869;-80
2023/06/13 12:42:42;;;;;;;;;12.20;12.20;;;;;;;;5064488;28;8877;-78
2023/06/13 12:45:12;;;;;;;;;11.00;11.00;;;;;;;;5066342;28;8862;-80
2023/06/13 12:47:39;;;;;;;;;10.00;8.00;;;;;;;;5070698;28;8851;-80
2023/06/13 12:50:12;;;;;;;;;9.00;9.00;;;;;;;;5064172;28;8854;-80
2023/06/13 12:52:39;;;;;;;;;12.20;10.40;;;;;;;;5070935;28;8928;-80
2023/06/13 12:55:07;;;;;;;;;11.40;11.40;;;;;;;;5070814;28;8895;-78
2023/06/13 12:57:35;;;;;;;;;9.80;9.80;;;;;;;;5068593;28;9274;-78
2023/06/13 13:00:08;;;;;;;;;11.80;11.80;;;;;;;;5062539;28;8858;-79
2023/06/13 13:02:35;;;;;;;;;9.60;9.60;;;;;;;;5067697;28;9613;-78
2023/06/13 13:05:03;;;;;;;;;11.00;11.00;;;;;;;;5070170;28;8855;-79
2023/06/13 13:07:32;;;;;;;;;12.20;12.20;;;;;;;;5066999;28;8890;-78
2023/06/13 13:09:59;;;;;;;;;13.60;12.60;;;;;;;;5071904;28;8847;-83
2023/06/13 13:12:27;;;;;;;;;13.40;13.40;;;;;;;;5068719;28;8847;-79
2023/06/13 13:14:56;;;;;;;;;10.80;10.80;;;;;;;;5068284;28;8856;-82
2023/06/13 13:17:28;;;;;;;;;12.80;12.00;;;;;;;;5072334;28;8878;-79
2023/06/13 13:19:59;;;;;;;;;9.40;9.40;;;;;;;;5064077;28;9008;-81
2023/06/13 13:22:27;;;;;;;;;10.60;10.60;;;;;;;;5067312;28;8945;-81
2023/06/13 13:24:56;;;;;;;;;13.20;13.20;;;;;;;;5069098;28;8865;-81
2023/06/13 13:27:25;;;;;;;;;12.20;11.40;;;;;;;;5069417;28;8883;-80
2023/06/13 13:29:55;;;;;;;;;12.60;12.60;;;;;;;;5070187;28;8870;-81
2023/06/13 13:32:22;;;;;;;;;10.40;9.40;;;;;;;;5069274;28;9593;-82
2023/06/13 13:34:54;;;;;;;;;11.00;11.00;;;;;;;;5070759;28;8847;-81
2023/06/13 13:37:21;;;;;;;;;13.60;13.60;;;;;;;;5068075;28;8895;-81
2023/06/13 13:39:48;;;;;;;;;11.60;11.60;;;;;;;;5057683;28;8970;-80
2023/06/13 13:42:16;;;;;;;;;13.80;13.80;;;;;;;;5071786;28;8855;-80
2023/06/13 13:44:43;;;;;;;;;11.80;11.80;;;;;;;;5071746;28;8869;-80
2023/06/13 13:47:10;;;;;;;;;10.40;9.80;;;;;;;;5072384;28;8877;-79
2023/06/13 13:49:38;;;;;;;;;11.60;11.60;;;;;;;;5063045;28;8973;-79
2023/06/13 13:52:07;;;;;;;;;11.40;11.40;;;;;;;;5071182;28;8977;-80
2023/06/13 13:54:37;;;;;;;;;10.40;10.40;;;;;;;;5066683;28;9697;-80
2023/06/13 13:57:05;;;;;;;;;11.40;11.40;;;;;;;;5063173;28;8862;-79
2023/06/13 13:59:32;;;;;;;;;10.40;10.40;;;;;;;;5064199;28;8854;-81
2023/06/13 14:01:59;;;;;;;;;14.00;10.60;;;;;;;;5066706;28;8864;-80
2023/06/13 14:04:29;;;;;;;;;10.40;10.40;;;;;;;;5065160;28;8855;-79
2023/06/13 14:06:56;;;;;;;;;8.00;8.00;;;;;;;;5064586;28;8863;-80
2023/06/13 14:09:25;;;;;;;;;12.20;12.20;;;;;;;;5069554;28;8988;-80
2023/06/13 14:11:52;;;;;;;;;10.00;10.00;;;;;;;;5064910;28;8843;-80
2023/06/13 14:14:20;;;;;;;;;11.20;11.20;;;;;;;;5069594;28;8830;-80
2023/06/13 14:16:47;;;;;;;;;12.60;12.60;;;;;;;;5069211;28;8866;-81
2023/06/13 14:19:17;;;;;;;;;11.40;10.40;;;;;;;;5063483;28;8854;-80
2023/06/13 14:21:44;;;;;;;;;9.80;9.20;;;;;;;;5053755;28;8872;-80
2023/06/13 14:24:12;;;;;;;;;13.20;13.20;;;;;;;;5058544;28;8858;-79
2023/06/13 14:26:43;;;;;;;;;10.20;8.20;;;;;;;;5068634;28;8863;-80
2023/06/13 14:29:10;;;;;;;;;13.00;13.00;;;;;;;;5067381;28;8997;-82
2023/06/13 14:31:39;;;;;;;;;9.20;7.80;;;;;;;;5067618;28;8799;-83
2023/06/13 14:34:06;;;;;;;;;12.20;12.20;;;;;;;;5058167;28;8869;-80
2023/06/13 14:36:33;;;;;;;;;10.00;9.00;;;;;;;;5069115;28;8909;-80
2023/06/13 14:39:05;;;;;;;;;10.20;8.60;;;;;;;;5067411;28;8896;-80
2023/06/13 14:41:34;;;;;;;;;9.00;9.00;;;;;;;;5070054;28;9013;-80
2023/06/13 14:44:05;;;;;;;;;9.20;9.20;;;;;;;;5067715;28;8944;-80